Agadir, Maroc

16:47 WEST le 28 mai 2015 (GMT +0100)
Al-Massira | | Change Station
CLOSE
Current Station
Aéroport
Location: Agadir Al Massira,
Altitude: 243 ft
Stations météo à proximité

Alt. 243 ft 30.33 °N, 9.40 °W | Updated 17 minutes ago

Scattered Clouds
Nuages épars
75 ° F
Paraît 75 ° F
N
15
Vent Variable Vent de Ouest

Aujourd'hui
Haut(e) -- | Bas -- ° F
--% Risque de précip.
Hier
Haut(e) -- | Bas -- ° F
Precip. -- pouce
6:38 AM 8:33 PM
Lune gibbeuse croissante, 76% visible
Pression 29.92 pouce
Visibilité 6.2 Miles terrestres
Nuages Nuages épars 2600 ft
Point de rosée 54 ° F
Humidité 47%
Précipitations 0.00 pouce
Profondeur de la couche neigeuse Non disponible.
UV 7 sur 12
Pollen Non disponible.
Qualité de l'air Non disponible.
Flu Activity Non disponible.
METAR GMAD 281530Z 27013KT 240V300 9999 SCT026 24/12 Q1013 NOSIG

More Conditions Fewer Conditions

Pression 29.92 pouce
Visibilité 6.2 Miles terrestres
Nuages Nuages épars 2600 ft
Point de rosée 54 ° F
Humidité 47%
Précipitations 0.00 pouce
Profondeur de la couche neigeuse Non disponible.
UV 7 sur 12
Pollen Non disponible.
Qualité de l'air Non disponible.
Flu Activity Non disponible.
METAR GMAD 281530Z 27013KT 240V300 9999 SCT026 24/12 Q1013 NOSIG

More Conditions Fewer Conditions

10-Day Weather Forecast

Almanac

Astronomie

May. 28, 2015 Lever Coucher
Temps réel
Crépuscule civil
Crépuscule nautique
Crépuscule astronomique
Lune
Durée de lumière visible
Longueur du jour
Tomorrow will be .
, % of the Moon is Illuminated

Extrêmes aujourd'hui

Country Highs Country Lows

Community

WunderPhotos

Upload Photos

1,824,999 Photos téléchargées !

WunderBlogs® & News

Nearby

Qualité de l'air

  Qualité de l'air Indice de la qualité de l'air Polluant
Not available.

Épaisseur de neige

Station Depth Altitude

Activité sismique

Ville Distance Mag. Time & Date
Minimum magnitude displayed is 2.5.

Températures des eaux côtières

Lieu Température

Stations

Stations météo à proximité

Emplacement de la station Température Refroidissement éolien Point de rosée Humidité Vent Precip. Alt. Mise à jour Type